createdAt,value
2023-02-19T00:00:53.726Z,6.1
2023-02-19T00:06:11.229Z,5.4
2023-02-19T00:11:17.653Z,6.1
2023-02-19T00:22:04.682Z,8.0
2023-02-19T00:27:12.086Z,7.6
2023-02-19T00:32:18.589Z,7.0
2023-02-19T00:37:48.901Z,7.0
2023-02-19T00:42:31.280Z,7.2
2023-02-19T00:47:37.628Z,11.0
2023-02-19T00:52:43.989Z,8.3
2023-02-19T00:57:50.386Z,7.6
2023-02-19T01:02:56.732Z,8.4
2023-02-19T01:08:37.229Z,10.8
2023-02-19T01:13:44.669Z,10.6
2023-02-19T01:18:51.026Z,8.4
2023-02-19T01:24:21.464Z,8.9
2023-02-19T01:29:07.825Z,13.3
2023-02-19T01:34:10.170Z,12.2
2023-02-19T01:46:11.290Z,17.9
2023-02-19T01:51:18.607Z,13.9
2023-02-19T01:56:25.122Z,11.1
2023-02-19T02:01:22.622Z,11.3
2023-02-19T02:06:28.985Z,10.6
2023-02-19T02:11:45.417Z,11.9
2023-02-19T02:16:51.847Z,10.6
2023-02-19T02:21:58.196Z,9.2
2023-02-19T02:27:04.574Z,11.8
2023-02-19T02:32:11.088Z,11.6
2023-02-19T02:37:40.950Z,6.9
2023-02-19T02:42:27.405Z,7.4
2023-02-19T02:47:33.788Z,8.7
2023-02-19T02:52:40.191Z,7.8
2023-02-19T02:57:48.109Z,10.2
2023-02-19T03:02:54.477Z,8.3
2023-02-19T03:09:16.590Z,7.3
2023-02-19T03:13:10.803Z,7.1
2023-02-19T03:18:18.745Z,6.7
2023-02-19T03:23:25.142Z,5.2
2023-02-19T03:28:31.747Z,4.3
2023-02-19T03:33:38.110Z,8.0
2023-02-19T03:38:44.581Z,5.8
2023-02-19T03:43:50.987Z,7.0
2023-02-19T03:48:47.353Z,6.8
2023-02-19T03:54:03.763Z,5.1
2023-02-19T03:59:10.137Z,4.3
2023-02-19T04:04:16.538Z,6.5
2023-02-19T04:09:12.959Z,4.1
2023-02-19T04:14:29.488Z,5.8
2023-02-19T04:19:55.906Z,4.2
2023-02-19T04:24:42.229Z,4.4
2023-02-19T04:29:48.731Z,5.6
2023-02-19T04:34:55.113Z,3.4
2023-02-19T04:40:01.506Z,5.6
2023-02-19T04:45:07.861Z,4.8
2023-02-19T04:50:14.310Z,4.1
2023-02-19T04:55:20.710Z,6.1
2023-02-19T05:00:27.119Z,3.2
2023-02-19T05:05:33.521Z,4.2
2023-02-19T05:10:39.902Z,4.1
2023-02-19T05:16:30.527Z,3.4
2023-02-19T05:20:52.839Z,3.6
2023-02-19T05:25:59.391Z,4.2
2023-02-19T05:31:05.988Z,3.9
2023-02-19T05:36:12.319Z,4.1
2023-02-19T05:41:09.035Z,4.3
2023-02-19T05:46:25.240Z,4.7
2023-02-19T05:51:31.594Z,3.9
2023-02-19T05:56:37.975Z,2.9
2023-02-19T06:01:44.357Z,3.6
2023-02-19T06:06:50.759Z,4.1
2023-02-19T06:11:57.272Z,4.1
2023-02-19T06:16:53.837Z,4.9
2023-02-19T06:22:10.448Z,4.2
2023-02-19T06:27:36.874Z,4.8
2023-02-19T06:32:43.258Z,4.3
2023-02-19T06:37:29.609Z,3.9
2023-02-19T06:42:35.987Z,4.9
2023-02-19T06:47:42.368Z,4.4
2023-02-19T06:52:48.727Z,4.6
2023-02-19T06:57:55.129Z,3.9
2023-02-19T07:03:02.859Z,3.8
2023-02-19T07:08:08.118Z,3.0
2023-02-19T07:13:14.511Z,4.8
2023-02-19T07:18:20.890Z,3.7
2023-02-19T07:23:27.279Z,3.6
2023-02-19T07:28:33.659Z,3.9
2023-02-19T07:33:40.031Z,4.0
2023-02-19T07:39:07.566Z,4.8
2023-02-19T07:43:52.870Z,5.2
2023-02-19T07:48:59.414Z,5.4
2023-02-19T07:54:05.911Z,5.6
2023-02-19T07:59:12.293Z,3.1
2023-02-19T08:04:08.681Z,2.7
2023-02-19T08:09:25.046Z,2.1
2023-02-19T08:14:31.433Z,9.0
2023-02-19T08:19:37.820Z,3.3
2023-02-19T08:24:44.187Z,3.6
2023-02-19T08:29:50.574Z,4.1
2023-02-19T08:34:56.950Z,4.1
2023-02-19T08:40:03.312Z,3.5
2023-02-19T08:45:09.701Z,2.6
2023-02-19T08:50:16.077Z,2.0
2023-02-19T08:55:22.449Z,3.5
2023-02-19T09:00:28.834Z,2.5
2023-02-19T09:05:25.193Z,1.3
2023-02-19T09:10:41.600Z,1.9
2023-02-19T09:15:47.981Z,1.9
2023-02-19T09:20:54.356Z,1.5
2023-02-19T09:26:00.745Z,1.8
2023-02-19T09:31:07.220Z,2.2
2023-02-19T09:36:13.559Z,1.9
2023-02-19T09:41:20.083Z,2.1
2023-02-19T09:46:50.515Z,3.0
2023-02-19T09:51:32.861Z,3.2
2023-02-19T09:56:40.404Z,3.3
2023-02-19T10:01:46.954Z,2.1
2023-02-19T10:06:53.258Z,3.4
2023-02-19T10:11:59.690Z,2.6
2023-02-19T10:17:06.066Z,1.6
2023-02-19T10:22:16.460Z,2.7
2023-02-19T10:27:18.827Z,2.2
2023-02-19T10:32:25.281Z,2.2
2023-02-19T10:37:21.630Z,2.6
2023-02-19T10:42:58.227Z,2.1
2023-02-19T10:47:45.193Z,2.1
2023-02-19T10:52:51.574Z,1.4
2023-02-19T10:57:57.986Z,2.0
2023-02-19T11:03:04.338Z,2.6
2023-02-19T11:08:30.750Z,2.5
2023-02-19T11:13:17.098Z,2.4
2023-02-19T11:18:23.525Z,2.8
2023-02-19T11:23:29.966Z,2.5
2023-02-19T11:28:50.583Z,1.7
2023-02-19T11:33:43.151Z,1.9
2023-02-19T11:40:05.122Z,2.7
2023-02-19T11:44:47.457Z,0.9
2023-02-19T11:49:55.801Z,1.9
2023-02-19T11:55:01.490Z,4.4
2023-02-19T12:00:44.738Z,1.9
2023-02-19T12:05:52.127Z,2.6
2023-02-19T12:10:58.508Z,2.0
2023-02-19T12:16:04.938Z,2.3
2023-02-19T12:21:11.481Z,1.6
2023-02-19T12:26:17.807Z,3.6
2023-02-19T12:31:24.277Z,2.6
2023-02-19T12:36:30.537Z,2.6
2023-02-19T12:41:36.941Z,3.2
2023-02-19T12:46:43.345Z,5.8
2023-02-19T12:51:49.740Z,2.1
2023-02-19T12:56:56.122Z,2.8
2023-02-19T13:02:02.590Z,3.4
2023-02-19T13:07:09.042Z,2.7
2023-02-19T13:12:15.439Z,1.7
2023-02-19T13:17:21.823Z,3.3
2023-02-19T13:22:42.231Z,1.9
2023-02-19T13:27:34.581Z,1.8
2023-02-19T13:32:40.952Z,1.5
2023-02-19T13:37:47.329Z,2.2
2023-02-19T13:42:43.678Z,2.9
2023-02-19T13:48:00.102Z,2.4
2023-02-19T13:53:06.612Z,1.8
2023-02-19T13:58:13.003Z,2.0
2023-02-19T14:03:19.419Z,1.4
2023-02-19T14:08:27.324Z,1.7
2023-02-19T14:13:33.701Z,1.6
2023-02-19T14:18:40.072Z,3.8
2023-02-19T14:23:46.449Z,1.7
2023-02-19T14:28:53.860Z,6.8
2023-02-19T14:34:24.722Z,2.1
2023-02-19T14:39:07.113Z,3.2
2023-02-19T14:44:05.576Z,2.6
2023-02-19T14:49:21.988Z,2.8
2023-02-19T14:54:29.008Z,2.7
2023-02-19T15:00:19.467Z,2.5
2023-02-19T15:05:05.986Z,2.0
2023-02-19T15:09:48.778Z,3.2
2023-02-19T15:14:55.274Z,2.6
2023-02-19T15:20:21.908Z,2.7
2023-02-19T15:25:08.193Z,2.7
2023-02-19T15:35:41.393Z,3.5
2023-02-19T15:40:47.791Z,12.3
2023-02-19T15:45:37.280Z,5.3
2023-02-19T15:53:27.950Z,4.0
2023-02-19T15:55:40.076Z,5.1
2023-02-19T16:00:56.890Z,3.9
2023-02-19T16:06:03.487Z,3.0
2023-02-19T16:11:10.188Z,2.9
2023-02-19T16:16:16.672Z,3.6
2023-02-19T16:21:23.006Z,2.9
2023-02-19T16:26:29.361Z,3.6
2023-02-19T16:31:35.867Z,2.4
2023-02-19T16:41:47.577Z,3.2
2023-02-19T16:47:16.510Z,3.4
2023-02-19T16:52:04.404Z,2.4
2023-02-19T16:57:12.796Z,4.1
2023-02-19T17:02:19.176Z,3.1
2023-02-19T17:07:45.772Z,4.3
2023-02-19T17:12:46.153Z,4.1
2023-02-19T17:18:02.103Z,6.8
2023-02-19T17:22:48.576Z,5.3
2023-02-19T17:28:19.040Z,2.8
2023-02-19T17:33:01.449Z,2.7
2023-02-19T17:38:37.434Z,3.4
2023-02-19T17:43:15.790Z,2.8
2023-02-19T17:48:43.795Z,5.1
2023-02-19T17:53:30.105Z,2.3
2023-02-19T17:59:00.601Z,2.8
2023-02-19T18:03:43.104Z,4.9
2023-02-19T18:08:49.442Z,3.1
2023-02-19T18:13:55.814Z,2.7
2023-02-19T18:19:02.327Z,3.3
2023-02-19T18:24:08.704Z,3.0
2023-02-19T18:29:15.171Z,3.3
2023-02-19T18:34:22.129Z,1.9
2023-02-19T18:39:28.503Z,1.8
2023-02-19T18:44:34.884Z,2.2
2023-02-19T18:49:41.282Z,2.6
2023-02-19T18:55:07.849Z,2.6
2023-02-19T18:59:54.232Z,1.9
2023-02-19T19:05:20.659Z,3.1
2023-02-19T19:12:16.226Z,5.3
2023-02-19T19:15:59.546Z,3.2
2023-02-19T19:22:04.006Z,2.0
2023-02-19T19:26:47.502Z,2.6
2023-02-19T19:31:53.881Z,1.1
2023-02-19T19:37:00.263Z,1.7
2023-02-19T19:42:10.724Z,2.6
2023-02-19T19:47:13.046Z,1.9
2023-02-19T19:52:39.523Z,1.7
2023-02-19T19:57:25.856Z,4.1
2023-02-19T20:02:32.286Z,2.7
2023-02-19T20:07:38.667Z,2.5
2023-02-19T20:12:45.145Z,1.9
2023-02-19T20:17:51.640Z,2.1
2023-02-19T20:23:18.084Z,2.0
2023-02-19T20:28:28.507Z,1.3
2023-02-19T20:34:22.934Z,1.5
2023-02-19T20:38:37.217Z,0.8
2023-02-19T20:43:23.587Z,1.3
2023-02-19T20:48:30.358Z,1.6
2023-02-19T20:53:36.884Z,1.8
2023-02-19T20:58:43.359Z,2.0
2023-02-19T21:03:49.720Z,2.7
2023-02-19T21:08:56.092Z,1.6
2023-02-19T21:14:02.519Z,2.1
2023-02-19T21:19:29.152Z,2.0
2023-02-19T21:24:15.501Z,1.0
2023-02-19T21:29:22.070Z,2.6
2023-02-19T21:35:40.607Z,2.7
2023-02-19T21:39:34.844Z,5.6
2023-02-19T21:45:41.409Z,3.6
2023-02-19T21:49:47.606Z,3.1
2023-02-19T21:54:54.001Z,2.7
2023-02-19T22:02:48.852Z,2.5
2023-02-19T22:05:06.878Z,4.0
2023-02-19T22:10:33.400Z,2.0
2023-02-19T22:15:19.762Z,1.6
2023-02-19T22:20:29.236Z,3.1
2023-02-19T22:25:55.663Z,2.5
2023-02-19T22:32:29.221Z,4.1
2023-02-19T22:39:08.740Z,2.1
2023-02-19T22:43:02.960Z,1.6
2023-02-19T22:47:49.304Z,2.8
2023-02-19T22:53:15.757Z,3.2
2023-02-19T22:58:02.093Z,3.8
2023-02-19T23:03:08.473Z,2.6
2023-02-19T23:08:15.017Z,3.6
2023-02-19T23:13:25.428Z,4.4
2023-02-19T23:18:27.797Z,4.5
2023-02-19T23:23:34.200Z,4.3
2023-02-19T23:28:40.572Z,5.6
2023-02-19T23:33:46.982Z,5.7
2023-02-19T23:38:53.368Z,5.7
2023-02-19T23:43:59.828Z,2.5
2023-02-19T23:49:06.208Z,4.8
2023-02-19T23:59:55.191Z,6.2
